createdAt,value
2022-07-26T00:00:02.348Z,75.75
2022-07-26T00:01:02.428Z,75.75
2022-07-26T00:02:02.397Z,75.75
2022-07-26T00:03:02.459Z,76.05
2022-07-26T00:04:02.359Z,76.15
2022-07-26T00:05:02.359Z,76.35
2022-07-26T00:06:02.368Z,76.45
2022-07-26T00:07:02.358Z,75.95
2022-07-26T00:08:02.362Z,76.96
2022-07-26T00:09:02.362Z,76.96
2022-07-26T00:10:02.364Z,76.25
2022-07-26T00:11:07.405Z,76.15
2022-07-26T00:12:02.370Z,76.86
2022-07-26T00:13:02.373Z,76.25
2022-07-26T00:14:02.371Z,77.06
2022-07-26T00:15:02.373Z,77.96
2022-07-26T00:16:02.431Z,77.16
2022-07-26T00:17:02.393Z,75.25
2022-07-26T00:18:02.389Z,75.75
2022-07-26T00:19:02.390Z,76.56
2022-07-26T00:20:02.393Z,76.45
2022-07-26T00:21:02.385Z,76.39
2022-07-26T00:22:02.389Z,76.76
2022-07-26T00:23:02.393Z,76.89
2022-07-26T00:24:02.393Z,77.26
2022-07-26T00:25:02.389Z,77.80
2022-07-26T00:26:03.408Z,75.95
2022-07-26T00:27:02.401Z,77.16
2022-07-26T00:28:02.405Z,76.65
2022-07-26T00:29:02.404Z,76.56
2022-07-26T00:30:02.403Z,77.16
2022-07-26T00:31:02.994Z,78.36
2022-07-26T00:32:02.528Z,77.26
2022-07-26T00:33:02.407Z,77.46
2022-07-26T00:34:02.412Z,77.06
2022-07-26T00:35:02.413Z,76.19
2022-07-26T00:36:02.420Z,77.90
2022-07-26T00:37:02.420Z,77.29
2022-07-26T00:38:02.422Z,76.63
2022-07-26T00:39:02.421Z,77.83
2022-07-26T00:40:02.420Z,77.03
2022-07-26T00:41:02.423Z,78.03
2022-07-26T00:42:02.423Z,77.63
2022-07-26T00:43:02.628Z,78.34
2022-07-26T00:44:02.429Z,78.34
2022-07-26T00:45:02.436Z,78.38
2022-07-26T00:46:02.573Z,78.98
2022-07-26T00:47:02.438Z,79.08
2022-07-26T00:48:02.432Z,78.88
2022-07-26T00:49:02.539Z,78.58
2022-07-26T00:50:02.436Z,79.18
2022-07-26T00:51:02.442Z,79.88
2022-07-26T00:52:02.439Z,79.28
2022-07-26T00:53:02.441Z,79.18
2022-07-26T00:54:02.447Z,79.38
2022-07-26T00:55:02.510Z,79.08
2022-07-26T00:56:02.452Z,80.49
2022-07-26T00:57:02.449Z,79.58
2022-07-26T00:58:02.450Z,79.48
2022-07-26T00:59:02.456Z,80.79
2022-07-26T01:00:02.460Z,80.79
2022-07-26T01:01:02.590Z,78.47
2022-07-26T01:02:02.697Z,79.58
2022-07-26T01:03:02.460Z,79.48
2022-07-26T01:04:02.464Z,79.79
2022-07-26T01:05:02.465Z,81.13
2022-07-26T01:06:02.466Z,80.32
2022-07-26T01:07:02.475Z,79.82
2022-07-26T01:08:02.469Z,80.26
2022-07-26T01:09:02.470Z,81.03
2022-07-26T01:10:02.475Z,80.63
2022-07-26T01:11:02.485Z,81.03
2022-07-26T01:12:02.481Z,81.03
2022-07-26T01:13:02.480Z,81.13
2022-07-26T01:14:02.483Z,81.03
2022-07-26T01:15:02.488Z,80.43
2022-07-26T01:16:02.544Z,80.73
2022-07-26T01:17:02.482Z,81.43
2022-07-26T01:18:02.484Z,81.03
2022-07-26T01:19:02.489Z,81.13
2022-07-26T01:20:02.496Z,79.92
2022-07-26T01:21:09.548Z,80.02
2022-07-26T01:22:02.495Z,81.03
2022-07-26T01:23:02.496Z,79.42
2022-07-26T01:24:02.502Z,79.22
2022-07-26T01:25:02.495Z,81.09
2022-07-26T01:26:02.498Z,80.52
2022-07-26T01:27:02.500Z,81.13
2022-07-26T01:28:02.505Z,79.92
2022-07-26T01:29:02.510Z,80.43
2022-07-26T01:30:02.506Z,81.03
2022-07-26T01:31:02.555Z,81.29
2022-07-26T01:32:02.507Z,80.79
2022-07-26T01:33:02.507Z,81.19
2022-07-26T01:34:02.512Z,81.13
2022-07-26T01:35:02.512Z,80.52
2022-07-26T01:36:02.520Z,81.23
2022-07-26T01:37:02.531Z,81.23
2022-07-26T01:38:02.523Z,80.32
2022-07-26T01:39:02.521Z,81.23
2022-07-26T01:40:02.527Z,81.43
2022-07-26T01:41:02.523Z,82.64
2022-07-26T01:42:02.525Z,82.14
2022-07-26T01:43:02.526Z,81.73
2022-07-26T01:44:02.526Z,82.24
2022-07-26T01:45:02.528Z,82.24
2022-07-26T01:46:02.615Z,82.94
2022-07-26T01:47:02.528Z,82.34
2022-07-26T01:48:02.537Z,81.93
2022-07-26T01:49:02.667Z,81.84
2022-07-26T01:50:02.536Z,82.14
2022-07-26T01:51:02.538Z,82.38
2022-07-26T01:52:02.539Z,82.28
2022-07-26T01:53:02.537Z,81.27
2022-07-26T01:54:02.546Z,82.48
2022-07-26T01:55:02.544Z,81.73
2022-07-26T01:56:02.544Z,81.07
2022-07-26T01:57:02.545Z,82.68
2022-07-26T01:58:02.551Z,82.58
2022-07-26T01:59:02.555Z,84.05
2022-07-26T02:00:02.550Z,82.04
2022-07-26T02:01:02.556Z,81.57
2022-07-26T02:02:02.682Z,82.04
2022-07-26T02:03:02.658Z,81.43
2022-07-26T02:04:02.561Z,81.07
2022-07-26T02:05:02.557Z,82.48
2022-07-26T02:06:02.559Z,81.43
2022-07-26T02:07:05.581Z,80.93
2022-07-26T02:08:02.562Z,82.14
2022-07-26T02:09:02.567Z,81.43
2022-07-26T02:10:02.568Z,82.04
2022-07-26T02:11:03.612Z,81.33
2022-07-26T02:12:02.569Z,82.14
2022-07-26T02:13:02.568Z,81.23
2022-07-26T02:14:02.574Z,81.23
2022-07-26T02:15:02.571Z,81.63
2022-07-26T02:16:02.633Z,82.24
2022-07-26T02:17:02.574Z,81.84
2022-07-26T02:18:02.578Z,81.43
2022-07-26T02:19:02.576Z,82.54
2022-07-26T02:20:02.586Z,82.14
2022-07-26T02:21:02.580Z,80.32
2022-07-26T02:22:02.580Z,81.03
2022-07-26T02:23:02.587Z,80.73
2022-07-26T02:24:02.584Z,82.14
2022-07-26T02:25:05.297Z,81.84
2022-07-26T02:26:02.594Z,81.93
2022-07-26T02:27:02.591Z,81.43
2022-07-26T02:28:02.594Z,82.14
2022-07-26T02:29:02.603Z,82.04
2022-07-26T02:30:02.597Z,81.23
2022-07-26T02:31:02.740Z,81.23
2022-07-26T02:32:02.600Z,81.53
2022-07-26T02:33:02.598Z,82.04
2022-07-26T02:34:02.599Z,81.73
2022-07-26T02:35:02.602Z,81.73
2022-07-26T02:36:02.605Z,81.63
2022-07-26T02:37:02.607Z,81.77
2022-07-26T02:38:02.607Z,81.98
2022-07-26T02:39:02.609Z,82.44
2022-07-26T02:40:02.611Z,81.17
2022-07-26T02:41:02.610Z,82.44
2022-07-26T02:42:02.630Z,82.44
2022-07-26T02:43:02.616Z,82.44
2022-07-26T02:44:02.615Z,82.64
2022-07-26T02:45:02.614Z,82.04
2022-07-26T02:46:02.770Z,82.24
2022-07-26T02:47:02.617Z,81.93
2022-07-26T02:48:02.626Z,82.54
2022-07-26T02:49:02.651Z,82.54
2022-07-26T02:50:02.632Z,82.14
2022-07-26T02:51:02.623Z,82.14
2022-07-26T02:52:02.624Z,82.54
2022-07-26T02:53:02.628Z,81.03
2022-07-26T02:54:02.629Z,81.23
2022-07-26T02:55:02.629Z,82.44
2022-07-26T02:56:02.630Z,81.03
2022-07-26T02:57:02.631Z,81.63
2022-07-26T02:58:02.634Z,81.93
2022-07-26T02:59:02.635Z,82.34
2022-07-26T03:00:02.637Z,80.52
2022-07-26T03:01:02.640Z,82.10
2022-07-26T03:02:02.764Z,82.24
2022-07-26T03:03:02.716Z,82.10
2022-07-26T03:04:02.643Z,80.99
2022-07-26T03:05:02.652Z,80.79
2022-07-26T03:06:02.672Z,81.93
2022-07-26T03:07:02.651Z,82.14
2022-07-26T03:08:02.661Z,81.13
2022-07-26T03:09:02.651Z,82.14
2022-07-26T03:10:02.661Z,82.84
2022-07-26T03:11:02.655Z,83.34
2022-07-26T03:12:02.656Z,82.74
2022-07-26T03:13:02.656Z,84.15
2022-07-26T03:14:02.658Z,83.95
2022-07-26T03:15:02.659Z,84.05
2022-07-26T03:16:02.763Z,84.15
2022-07-26T03:17:02.664Z,82.54
2022-07-26T03:18:02.666Z,81.84
2022-07-26T03:19:02.663Z,82.74
2022-07-26T03:20:02.669Z,82.44
2022-07-26T03:21:02.665Z,82.74
2022-07-26T03:22:02.671Z,82.84
2022-07-26T03:23:02.668Z,81.93
2022-07-26T03:24:02.673Z,81.84
2022-07-26T03:25:02.674Z,82.38
2022-07-26T03:26:02.679Z,82.78
2022-07-26T03:27:02.677Z,84.09
2022-07-26T03:28:02.689Z,83.39
2022-07-26T03:29:02.678Z,84.29
2022-07-26T03:30:02.682Z,84.15
2022-07-26T03:31:02.778Z,82.84
2022-07-26T03:32:02.682Z,83.48
2022-07-26T03:33:02.683Z,82.38
2022-07-26T03:34:03.426Z,83.69
2022-07-26T03:35:02.690Z,83.08
2022-07-26T03:36:02.690Z,83.28
2022-07-26T03:37:02.693Z,84.29
2022-07-26T03:38:02.697Z,83.28
2022-07-26T03:39:02.693Z,83.25
2022-07-26T03:40:02.693Z,83.18
2022-07-26T03:41:02.694Z,84.15
2022-07-26T03:42:02.699Z,84.35
2022-07-26T03:43:02.921Z,83.84
2022-07-26T03:44:02.724Z,84.35
2022-07-26T03:45:02.705Z,84.55
2022-07-26T03:46:02.768Z,84.05
2022-07-26T03:47:02.708Z,84.31
2022-07-26T03:48:02.704Z,82.60
2022-07-26T03:49:02.821Z,83.95
2022-07-26T03:50:02.705Z,83.25
2022-07-26T03:51:02.711Z,82.30
2022-07-26T03:52:02.712Z,82.24
2022-07-26T03:53:02.711Z,82.60
2022-07-26T03:54:02.717Z,82.34
2022-07-26T03:55:02.714Z,82.34
2022-07-26T03:56:02.721Z,83.20
2022-07-26T03:57:02.719Z,83.25
2022-07-26T03:58:02.720Z,82.74
2022-07-26T03:59:02.720Z,82.34
2022-07-26T04:00:02.726Z,83.34
2022-07-26T04:01:02.802Z,84.05
2022-07-26T04:02:02.872Z,84.15
2022-07-26T04:03:02.791Z,83.34
2022-07-26T04:04:02.731Z,84.05
2022-07-26T04:05:02.734Z,82.64
2022-07-26T04:06:02.731Z,83.14
2022-07-26T04:07:03.157Z,83.95
2022-07-26T04:08:02.734Z,84.29
2022-07-26T04:09:02.739Z,84.49
2022-07-26T04:10:02.735Z,84.09
2022-07-26T04:11:02.739Z,84.09
2022-07-26T04:12:02.751Z,84.13
2022-07-26T04:13:02.738Z,84.29
2022-07-26T04:14:02.782Z,84.19
2022-07-26T04:15:02.747Z,84.49
2022-07-26T04:16:02.749Z,84.89
2022-07-26T04:17:02.823Z,85.00
2022-07-26T04:18:02.745Z,84.89
2022-07-26T04:20:02.751Z,84.59
2022-07-26T04:21:02.752Z,84.39
2022-07-26T04:22:02.761Z,85.20
2022-07-26T04:23:02.760Z,85.50
2022-07-26T04:24:02.756Z,85.20
2022-07-26T04:25:02.758Z,85.76
2022-07-26T04:26:02.758Z,85.10
2022-07-26T04:27:02.762Z,84.95
2022-07-26T04:28:02.759Z,85.50
2022-07-26T04:29:02.765Z,84.95
2022-07-26T04:30:02.771Z,84.45
2022-07-26T04:31:02.789Z,84.69
2022-07-26T04:32:02.766Z,84.19
2022-07-26T04:33:02.778Z,84.49
2022-07-26T04:34:02.775Z,83.99
2022-07-26T04:35:02.777Z,84.94
2022-07-26T04:36:02.772Z,85.14
2022-07-26T04:37:02.778Z,84.63
2022-07-26T04:38:02.775Z,84.83
2022-07-26T04:39:02.779Z,85.24
2022-07-26T04:40:02.776Z,85.44
2022-07-26T04:41:02.781Z,85.54
2022-07-26T04:42:02.779Z,85.84
2022-07-26T04:43:02.782Z,85.64
2022-07-26T04:44:02.784Z,86.15
2022-07-26T04:45:07.768Z,85.34
2022-07-26T04:46:02.858Z,85.74
2022-07-26T04:47:02.789Z,85.94
2022-07-26T04:48:02.785Z,85.74
2022-07-26T04:49:02.890Z,86.15
2022-07-26T04:50:02.790Z,86.85
2022-07-26T04:51:02.791Z,86.95
2022-07-26T04:52:02.793Z,87.15
2022-07-26T04:53:02.797Z,87.05
2022-07-26T04:54:02.804Z,87.45
2022-07-26T04:55:02.800Z,87.40
2022-07-26T04:56:02.796Z,88.30
2022-07-26T04:57:02.802Z,89.31
2022-07-26T04:58:02.803Z,88.60
2022-07-26T04:59:02.805Z,88.60
2022-07-26T05:00:20.687Z,88.81
2022-07-26T05:01:09.882Z,89.41
2022-07-26T05:02:02.931Z,89.41
2022-07-26T05:03:02.870Z,90.22
2022-07-26T05:04:02.806Z,89.11
2022-07-26T05:05:02.813Z,89.71
2022-07-26T05:06:02.813Z,89.81
2022-07-26T05:07:02.814Z,89.51
2022-07-26T05:08:02.813Z,89.61
2022-07-26T05:09:02.816Z,90.32
2022-07-26T05:10:02.821Z,90.52
2022-07-26T05:11:02.817Z,89.41
2022-07-26T05:12:02.817Z,89.21
2022-07-26T05:13:02.820Z,89.61
2022-07-26T05:14:02.824Z,88.90
2022-07-26T05:15:04.430Z,88.81
2022-07-26T05:16:02.822Z,89.41
2022-07-26T05:17:08.711Z,89.91
2022-07-26T05:18:02.823Z,88.90
2022-07-26T05:19:02.826Z,89.21
2022-07-26T05:20:03.572Z,89.31
2022-07-26T05:21:02.830Z,89.51
2022-07-26T05:22:02.826Z,89.71
2022-07-26T05:23:02.836Z,90.01
2022-07-26T05:24:02.830Z,90.62
2022-07-26T05:25:02.833Z,89.21
2022-07-26T05:26:02.831Z,88.81
2022-07-26T05:27:02.834Z,89.21
2022-07-26T05:28:02.836Z,88.90
2022-07-26T05:29:02.836Z,88.60
2022-07-26T05:30:02.835Z,88.90
2022-07-26T05:31:02.900Z,88.10
2022-07-26T05:32:02.840Z,88.50
2022-07-26T05:33:02.842Z,89.11
2022-07-26T05:34:02.841Z,89.01
2022-07-26T05:35:02.841Z,88.90
2022-07-26T05:36:02.842Z,89.41
2022-07-26T05:37:02.847Z,89.41
2022-07-26T05:38:02.847Z,89.31
2022-07-26T05:39:02.847Z,89.11
2022-07-26T05:40:02.847Z,88.90
2022-07-26T05:41:02.853Z,89.41
2022-07-26T05:42:02.848Z,88.96
2022-07-26T05:43:02.850Z,89.57
2022-07-26T05:44:02.854Z,88.46
2022-07-26T05:45:02.855Z,89.01
2022-07-26T05:46:05.455Z,89.37
2022-07-26T05:47:02.854Z,88.40
2022-07-26T05:48:02.856Z,88.76
2022-07-26T05:49:02.951Z,88.86
2022-07-26T05:50:02.861Z,89.57
2022-07-26T05:51:02.861Z,89.97
2022-07-26T05:52:02.862Z,88.96
2022-07-26T05:53:02.872Z,89.17
2022-07-26T05:54:02.861Z,88.96
2022-07-26T05:55:02.865Z,88.96
2022-07-26T05:56:02.863Z,89.12
2022-07-26T05:57:02.866Z,88.26
2022-07-26T05:58:02.866Z,89.32
2022-07-26T05:59:02.870Z,89.43
2022-07-26T06:00:02.868Z,89.03
2022-07-26T06:01:02.873Z,89.32
2022-07-26T06:02:02.925Z,88.62
2022-07-26T06:03:02.880Z,88.82
2022-07-26T06:04:02.939Z,88.82
2022-07-26T06:05:02.876Z,88.52
2022-07-26T06:06:02.880Z,88.82
2022-07-26T06:07:02.878Z,88.68
2022-07-26T06:08:02.878Z,89.18
2022-07-26T06:09:02.880Z,88.28
2022-07-26T06:10:02.882Z,87.01
2022-07-26T06:11:02.879Z,87.31
2022-07-26T06:12:02.888Z,87.98
2022-07-26T06:13:02.884Z,87.47
2022-07-26T06:14:02.884Z,87.57
2022-07-26T06:15:02.887Z,87.77
2022-07-26T06:16:02.889Z,88.38
2022-07-26T06:17:03.012Z,88.48
2022-07-26T06:18:02.892Z,89.48
2022-07-26T06:19:02.907Z,89.28
2022-07-26T06:20:03.003Z,87.37
2022-07-26T06:21:02.902Z,88.88
2022-07-26T06:22:02.897Z,88.88
2022-07-26T06:23:02.905Z,88.68
2022-07-26T06:24:02.896Z,89.28
2022-07-26T06:25:02.900Z,87.57
2022-07-26T06:26:02.901Z,87.37
2022-07-26T06:27:05.349Z,87.57
2022-07-26T06:28:02.903Z,87.98
2022-07-26T06:29:02.906Z,88.58
2022-07-26T06:30:02.906Z,88.78
2022-07-26T06:31:02.910Z,88.68
2022-07-26T06:32:03.016Z,88.78
2022-07-26T06:33:02.927Z,89.18
2022-07-26T06:34:02.909Z,88.38
2022-07-26T06:35:02.916Z,88.38
2022-07-26T06:36:02.913Z,88.78
2022-07-26T06:37:02.914Z,89.39
2022-07-26T06:38:02.921Z,89.69
2022-07-26T06:39:02.919Z,89.89
2022-07-26T06:40:02.916Z,89.59
2022-07-26T06:41:02.922Z,87.93
2022-07-26T06:42:02.919Z,88.54
2022-07-26T06:43:04.658Z,89.08
2022-07-26T06:44:02.923Z,89.24
2022-07-26T06:45:02.927Z,88.64
2022-07-26T06:46:03.046Z,89.28
2022-07-26T06:47:02.930Z,88.13
2022-07-26T06:48:02.931Z,88.13
2022-07-26T06:49:03.014Z,87.77
2022-07-26T06:50:02.932Z,88.34
2022-07-26T06:51:02.932Z,88.54
2022-07-26T06:52:02.945Z,89.28
2022-07-26T06:53:02.938Z,89.28
2022-07-26T06:54:02.939Z,89.08
2022-07-26T06:55:02.937Z,88.74
2022-07-26T06:56:02.938Z,88.48
2022-07-26T06:57:02.938Z,89.24
2022-07-26T06:58:02.940Z,89.64
2022-07-26T06:59:07.578Z,89.04
2022-07-26T07:00:02.943Z,89.48
2022-07-26T07:01:03.007Z,89.08
2022-07-26T07:02:02.993Z,89.18
2022-07-26T07:03:02.950Z,89.08
2022-07-26T07:04:02.945Z,89.59
2022-07-26T07:05:03.043Z,90.34
2022-07-26T07:06:02.952Z,89.54
2022-07-26T07:07:05.199Z,88.84
2022-07-26T07:08:02.952Z,89.54
2022-07-26T07:09:02.955Z,88.64
2022-07-26T07:10:02.958Z,89.14
2022-07-26T07:11:02.962Z,88.38
2022-07-26T07:12:09.478Z,89.08
2022-07-26T07:13:02.962Z,88.43
2022-07-26T07:14:02.962Z,88.64
2022-07-26T07:15:02.969Z,89.18
2022-07-26T07:16:03.043Z,90.45
2022-07-26T07:17:02.963Z,90.65
2022-07-26T07:18:02.971Z,89.34
2022-07-26T07:19:02.967Z,88.43
2022-07-26T07:20:02.968Z,89.14
2022-07-26T07:21:02.974Z,89.44
2022-07-26T07:22:02.977Z,88.70
2022-07-26T07:23:02.977Z,89.20
2022-07-26T07:24:02.984Z,88.13
2022-07-26T07:25:03.147Z,88.94
2022-07-26T07:26:02.977Z,88.79
2022-07-26T07:27:02.980Z,88.79
2022-07-26T07:28:02.978Z,88.39
2022-07-26T07:29:04.193Z,88.79
2022-07-26T07:30:02.983Z,88.90
2022-07-26T07:31:03.868Z,89.10
2022-07-26T07:32:03.359Z,89.30
2022-07-26T07:33:03.514Z,87.99
2022-07-26T07:34:03.884Z,88.09
2022-07-26T07:35:02.995Z,88.90
2022-07-26T07:36:02.991Z,88.49
2022-07-26T07:37:02.995Z,88.09
2022-07-26T07:38:02.994Z,87.69
2022-07-26T07:39:06.352Z,87.39
2022-07-26T07:40:03.001Z,88.59
2022-07-26T07:41:03.000Z,87.55
2022-07-26T07:42:03.006Z,88.15
2022-07-26T07:43:03.001Z,88.75
2022-07-26T07:44:03.001Z,89.36
2022-07-26T07:45:03.002Z,89.36
2022-07-26T07:46:03.006Z,88.95
2022-07-26T07:47:03.105Z,88.05
2022-07-26T07:48:03.014Z,87.55
2022-07-26T07:49:03.092Z,86.14
2022-07-26T07:50:03.013Z,86.65
2022-07-26T07:51:03.026Z,87.24
2022-07-26T07:52:03.020Z,86.85
2022-07-26T07:53:03.014Z,87.55
2022-07-26T07:54:05.602Z,87.24
2022-07-26T07:55:28.630Z,87.75
2022-07-26T07:56:03.020Z,88.35
2022-07-26T07:57:03.033Z,87.24
2022-07-26T07:58:03.042Z,88.25
2022-07-26T07:59:03.030Z,87.55
2022-07-26T08:00:03.031Z,88.35
2022-07-26T08:01:03.067Z,88.55
2022-07-26T08:02:03.027Z,88.85
2022-07-26T08:03:03.031Z,88.95
2022-07-26T08:04:03.161Z,89.72
2022-07-26T08:05:11.465Z,88.41
2022-07-26T08:06:03.033Z,87.15
2022-07-26T08:07:03.036Z,87.24
2022-07-26T08:08:03.037Z,87.55
2022-07-26T08:09:05.413Z,87.15
2022-07-26T08:10:03.039Z,88.81
2022-07-26T08:11:03.046Z,89.26
2022-07-26T08:12:03.041Z,89.06
2022-07-26T08:13:03.043Z,88.31
2022-07-26T08:14:03.044Z,87.30
2022-07-26T08:15:07.513Z,88.51
2022-07-26T08:16:03.150Z,88.21
2022-07-26T08:17:03.049Z,87.71
2022-07-26T08:18:03.053Z,88.11
2022-07-26T08:19:03.057Z,87.30
2022-07-26T08:20:03.057Z,87.71
2022-07-26T08:21:03.064Z,87.81
2022-07-26T08:22:03.058Z,87.51
2022-07-26T08:23:03.070Z,88.21
2022-07-26T08:24:03.071Z,88.31
2022-07-26T08:25:03.062Z,87.60
2022-07-26T08:26:06.436Z,87.06
2022-07-26T08:27:03.070Z,87.16
2022-07-26T08:28:03.948Z,88.17
2022-07-26T08:29:03.070Z,88.47
2022-07-26T08:30:03.073Z,86.52
2022-07-26T08:31:03.097Z,86.52
2022-07-26T08:32:03.145Z,85.72
2022-07-26T08:33:03.077Z,85.02
2022-07-26T08:34:03.077Z,84.11
2022-07-26T08:35:17.657Z,85.97
2022-07-26T08:36:03.080Z,86.08
2022-07-26T08:37:18.526Z,86.82
2022-07-26T08:38:03.086Z,86.68
2022-07-26T08:39:03.089Z,86.78
2022-07-26T08:40:03.092Z,87.48
2022-07-26T08:41:03.090Z,87.58
2022-07-26T08:42:03.093Z,87.48
2022-07-26T08:43:03.098Z,86.98
2022-07-26T08:44:03.099Z,86.92
2022-07-26T08:45:03.100Z,86.52
2022-07-26T08:46:03.108Z,85.82
2022-07-26T08:47:03.159Z,85.72
2022-07-26T08:48:18.924Z,86.58
2022-07-26T08:49:03.126Z,86.58
2022-07-26T08:50:03.115Z,87.38
2022-07-26T08:51:03.113Z,86.98
2022-07-26T08:52:03.113Z,86.68
2022-07-26T08:53:03.117Z,86.68
2022-07-26T08:54:05.869Z,85.78
2022-07-26T08:55:03.120Z,85.58
2022-07-26T08:56:07.473Z,86.28
2022-07-26T08:57:03.127Z,86.58
2022-07-26T08:58:03.127Z,87.38
2022-07-26T08:59:03.130Z,87.24
2022-07-26T09:00:03.129Z,87.28
2022-07-26T09:01:03.209Z,87.18
2022-07-26T09:02:03.151Z,86.08
2022-07-26T09:03:03.141Z,84.93
2022-07-26T09:04:03.215Z,85.33
2022-07-26T09:05:03.141Z,84.33
2022-07-26T09:06:03.144Z,85.30
2022-07-26T09:07:03.147Z,83.59
2022-07-26T09:08:03.151Z,83.65
2022-07-26T09:09:03.148Z,81.95
2022-07-26T09:10:03.152Z,82.35
2022-07-26T09:11:03.154Z,82.81
2022-07-26T09:12:03.155Z,84.15
2022-07-26T09:13:03.157Z,84.11
2022-07-26T09:14:03.158Z,82.45
2022-07-26T09:15:03.176Z,81.35
2022-07-26T09:16:03.280Z,81.45
2022-07-26T09:17:03.164Z,82.11
2022-07-26T09:18:03.186Z,82.91
2022-07-26T09:19:03.169Z,81.57
2022-07-26T09:20:03.176Z,80.77
2022-07-26T09:21:03.173Z,77.13
2022-07-26T09:22:07.121Z,79.03
2022-07-26T09:23:03.180Z,80.53
2022-07-26T09:24:03.187Z,80.13
2022-07-26T09:25:03.182Z,82.03
2022-07-26T09:26:03.184Z,79.29
2022-07-26T09:27:03.186Z,81.09
2022-07-26T09:28:03.191Z,82.79
2022-07-26T09:29:03.192Z,80.33
2022-07-26T09:30:03.198Z,79.53
2022-07-26T09:31:03.360Z,78.73
2022-07-26T09:32:03.202Z,79.97
2022-07-26T09:33:03.201Z,81.77
2022-07-26T09:34:03.205Z,82.37
2022-07-26T09:35:03.208Z,82.37
2022-07-26T09:36:03.211Z,82.77
2022-07-26T09:37:03.208Z,82.77
2022-07-26T09:38:03.215Z,81.81
2022-07-26T09:39:03.218Z,81.81
2022-07-26T09:40:03.224Z,82.01
2022-07-26T09:41:03.222Z,81.41
2022-07-26T09:42:26.067Z,80.11
2022-07-26T09:43:03.269Z,80.21
2022-07-26T09:44:03.232Z,80.65
2022-07-26T09:45:03.234Z,80.74
2022-07-26T09:46:03.313Z,80.65
2022-07-26T09:47:03.235Z,82.45
2022-07-26T09:48:03.239Z,80.65
2022-07-26T09:49:11.685Z,81.24
2022-07-26T09:50:05.496Z,79.44
2022-07-26T09:51:03.248Z,79.68
2022-07-26T09:52:03.248Z,79.58
2022-07-26T09:53:03.276Z,81.38
2022-07-26T09:54:03.268Z,81.88
2022-07-26T09:55:03.255Z,82.39
2022-07-26T09:56:03.258Z,80.68
2022-07-26T09:57:03.257Z,81.59
2022-07-26T09:58:03.264Z,80.98
2022-07-26T09:59:03.266Z,82.59
2022-07-26T10:00:03.265Z,81.88
2022-07-26T10:01:03.269Z,82.49
2022-07-26T10:02:03.348Z,81.48
2022-07-26T10:03:03.333Z,82.18
2022-07-26T10:04:03.275Z,80.02
2022-07-26T10:05:03.293Z,82.18
2022-07-26T10:06:03.282Z,79.52
2022-07-26T10:07:03.280Z,80.72
2022-07-26T10:08:03.284Z,81.82
2022-07-26T10:09:03.282Z,80.72
2022-07-26T10:10:03.287Z,80.52
2022-07-26T10:11:03.288Z,79.12
2022-07-26T10:12:03.293Z,81.02
2022-07-26T10:13:03.295Z,80.42
2022-07-26T10:14:03.297Z,80.72
2022-07-26T10:15:03.295Z,78.22
2022-07-26T10:16:03.537Z,78.31
2022-07-26T10:17:03.302Z,77.91
2022-07-26T10:18:03.311Z,78.38
2022-07-26T10:19:03.307Z,78.88
2022-07-26T10:20:03.334Z,78.61
2022-07-26T10:21:03.307Z,78.02
2022-07-26T10:22:03.312Z,76.61
2022-07-26T10:23:03.326Z,76.85
2022-07-26T10:24:03.316Z,76.91
2022-07-26T10:25:03.316Z,78.72
2022-07-26T10:26:03.320Z,78.92
2022-07-26T10:27:03.324Z,76.51
2022-07-26T10:28:03.324Z,77.81
2022-07-26T10:29:03.325Z,77.51
2022-07-26T10:30:03.330Z,76.45
2022-07-26T10:31:03.405Z,76.91
2022-07-26T10:32:03.994Z,76.45
2022-07-26T10:33:03.336Z,74.84
2022-07-26T10:34:04.409Z,77.05
2022-07-26T10:35:03.347Z,79.05
2022-07-26T10:36:03.339Z,77.85
2022-07-26T10:37:03.337Z,79.86
2022-07-26T10:38:03.340Z,79.96
2022-07-26T10:39:03.340Z,79.36
2022-07-26T10:40:03.348Z,79.62
2022-07-26T10:41:03.345Z,78.52
2022-07-26T10:42:03.354Z,80.52
2022-07-26T10:43:23.064Z,80.62
2022-07-26T10:44:03.350Z,78.81
2022-07-26T10:45:03.354Z,78.72
2022-07-26T10:46:03.407Z,79.72
2022-07-26T10:47:03.354Z,80.82
2022-07-26T10:48:03.358Z,79.28
2022-07-26T10:49:03.587Z,79.18
2022-07-26T10:50:03.364Z,79.28
2022-07-26T10:51:06.354Z,79.18
2022-07-26T10:52:03.369Z,79.18
2022-07-26T10:53:03.818Z,79.78
2022-07-26T10:54:03.368Z,80.65
2022-07-26T10:55:03.371Z,81.95
2022-07-26T10:56:03.377Z,79.44
2022-07-26T10:57:03.375Z,76.94
2022-07-26T10:58:03.379Z,78.84
2022-07-26T10:59:03.383Z,79.60
2022-07-26T11:00:03.384Z,78.54
2022-07-26T11:01:03.381Z,78.20
2022-07-26T11:02:03.445Z,77.91
2022-07-26T11:03:03.434Z,78.80
2022-07-26T11:04:03.388Z,77.00
2022-07-26T11:05:03.390Z,76.70
2022-07-26T11:06:03.405Z,75.40
2022-07-26T11:07:03.393Z,75.70
2022-07-26T11:08:03.398Z,76.10
2022-07-26T11:09:03.398Z,77.36
2022-07-26T11:10:03.403Z,76.70
2022-07-26T11:11:03.401Z,77.10
2022-07-26T11:12:03.408Z,76.60
2022-07-26T11:13:03.404Z,76.30
2022-07-26T11:14:03.412Z,76.46
2022-07-26T11:15:03.417Z,77.80
2022-07-26T11:16:03.499Z,77.76
2022-07-26T11:17:03.412Z,75.26
2022-07-26T11:18:03.416Z,76.70
2022-07-26T11:19:03.417Z,76.43
2022-07-26T11:20:03.424Z,76.57
2022-07-26T11:21:03.420Z,77.48
2022-07-26T11:22:03.426Z,78.11
2022-07-26T11:23:03.427Z,80.22
2022-07-26T11:24:03.428Z,79.36
2022-07-26T11:25:03.436Z,79.75
2022-07-26T11:26:03.430Z,79.55
2022-07-26T11:27:03.430Z,79.19
2022-07-26T11:28:03.460Z,79.49
2022-07-26T11:29:06.804Z,80.19
2022-07-26T11:30:03.439Z,80.19
2022-07-26T11:31:03.837Z,79.93
2022-07-26T11:32:14.751Z,80.94
2022-07-26T11:33:03.448Z,80.37
2022-07-26T11:34:03.448Z,82.14
2022-07-26T11:35:03.448Z,81.24
2022-07-26T11:36:03.450Z,81.54
2022-07-26T11:37:03.450Z,82.34
2022-07-26T11:38:11.770Z,82.14
2022-07-26T11:39:03.452Z,82.60
2022-07-26T11:40:03.452Z,82.20
2022-07-26T11:41:03.455Z,80.16
2022-07-26T11:42:03.457Z,81.42
2022-07-26T11:43:03.453Z,80.22
2022-07-26T11:44:03.454Z,81.42
2022-07-26T11:45:03.458Z,80.02
2022-07-26T11:46:03.572Z,80.82
2022-07-26T11:47:03.458Z,78.25
2022-07-26T11:48:03.462Z,79.36
2022-07-26T11:49:03.536Z,80.56
2022-07-26T11:50:22.880Z,80.72
2022-07-26T11:51:03.463Z,81.82
2022-07-26T11:52:03.470Z,81.42
2022-07-26T11:53:03.463Z,81.73
2022-07-26T11:54:03.474Z,81.52
2022-07-26T11:55:03.467Z,81.09
2022-07-26T11:56:03.473Z,80.38
2022-07-26T11:57:03.478Z,80.79
2022-07-26T11:58:03.473Z,79.18
2022-07-26T11:59:03.507Z,81.18
2022-07-26T12:00:03.478Z,78.58
2022-07-26T12:01:03.479Z,78.68
2022-07-26T12:02:03.480Z,79.92
2022-07-26T12:03:03.966Z,79.68
2022-07-26T12:04:03.579Z,80.98
2022-07-26T12:05:03.634Z,81.29
2022-07-26T12:06:03.484Z,79.48
2022-07-26T12:07:03.484Z,80.58
2022-07-26T12:08:03.485Z,79.98
2022-07-26T12:09:03.485Z,80.38
2022-07-26T12:10:03.489Z,80.44
2022-07-26T12:11:03.486Z,80.44
2022-07-26T12:12:03.491Z,80.04
2022-07-26T12:13:03.494Z,79.64
2022-07-26T12:14:03.493Z,77.94
2022-07-26T12:15:03.493Z,78.04
2022-07-26T12:16:03.521Z,76.64
2022-07-26T12:17:03.495Z,76.94
2022-07-26T12:18:03.497Z,77.24
2022-07-26T12:19:03.498Z,80.35
2022-07-26T12:20:03.577Z,78.88
2022-07-26T12:21:06.792Z,77.17
2022-07-26T12:22:03.504Z,76.98
2022-07-26T12:23:03.503Z,77.48
2022-07-26T12:24:03.509Z,76.47
2022-07-26T12:25:03.507Z,77.01
2022-07-26T12:26:08.063Z,77.98
2022-07-26T12:27:03.511Z,78.38
2022-07-26T12:28:03.521Z,78.58
2022-07-26T12:29:03.518Z,77.58
2022-07-26T12:30:03.573Z,77.31
2022-07-26T12:31:03.590Z,77.11
2022-07-26T12:32:03.527Z,77.01
2022-07-26T12:33:03.524Z,77.41
2022-07-26T12:34:03.522Z,77.01
2022-07-26T12:35:03.524Z,76.41
2022-07-26T12:36:03.522Z,75.81
2022-07-26T12:37:03.523Z,76.11
2022-07-26T12:38:03.529Z,76.81
2022-07-26T12:39:03.526Z,76.01
2022-07-26T12:40:03.567Z,76.71
2022-07-26T12:41:03.533Z,76.41
2022-07-26T12:42:03.533Z,78.42
2022-07-26T12:43:03.533Z,76.31
2022-07-26T12:44:03.559Z,76.31
2022-07-26T12:45:03.536Z,78.48
2022-07-26T12:46:03.623Z,78.58
2022-07-26T12:47:03.537Z,78.48
2022-07-26T12:48:03.548Z,77.91
2022-07-26T12:49:03.670Z,77.37
2022-07-26T12:50:03.710Z,80.28
2022-07-26T12:51:03.549Z,80.58
2022-07-26T12:52:03.542Z,78.58
2022-07-26T12:53:03.748Z,79.88